< < Back
Terminal Aerodrome Forecast


Current Version              Previous Versions:   1  2  3  4  5  6  7  8  9  

Terminal Aerodrome Forecast

843
FTUS44 KHUN 311125
TAFHSV
TAF
KHSV 311125Z 3112/0112 VRB03KT P6SM SCT250
     FM311500 20005KT P6SM BKN070
     FM311800 24010KT P6SM VCSH BKN040
      TEMPO 3120/3124 4SM -TSRA BR BKN025CB
     FM010000 VRB04KT P6SM VCSH BKN050=



Latest METAR

207
SAUS80 KWBC 312300
MTRHSV
METAR KHSV 312253Z 28005KT 10SM -RA FEW040 SCT085 BKN120 BKN250 23/15
A2991 RMK AO2 RAB47 SLP126 CB DSNT SE-S P0000 T02280150


USA.gov is the U.S. government's official web portal to all federal, state and local government web resources and services.